sensor_id;sensor_type;location;lat;lon;timestamp;pressure;altitude;pressure_sealevel;temperature;humidity
24280;BME280;12395;42.808;23.408;2023-04-15T00:00:12;94126.75;;;7.09;84.02
24280;BME280;12395;42.808;23.408;2023-04-15T00:02:37;94127.97;;;7.07;85.42
24280;BME280;12395;42.808;23.408;2023-04-15T00:05:04;94120.88;;;7.07;84.98
24280;BME280;12395;42.808;23.408;2023-04-15T00:07:29;94114.41;;;7.03;84.83
24280;BME280;12395;42.808;23.408;2023-04-15T00:09:55;94125.31;;;7.13;84.28
24280;BME280;12395;42.808;23.408;2023-04-15T00:12:26;94130.13;;;7.29;83.02
24280;BME280;12395;42.808;23.408;2023-04-15T00:14:51;94136.81;;;7.38;83.82
24280;BME280;12395;42.808;23.408;2023-04-15T00:17:17;94148.56;;;7.42;83.03
24280;BME280;12395;42.808;23.408;2023-04-15T00:19:43;94154.63;;;7.49;81.91
24280;BME280;12395;42.808;23.408;2023-04-15T00:22:11;94148.34;;;7.57;80.81
24280;BME280;12395;42.808;23.408;2023-04-15T00:24:37;94144.06;;;7.62;80.60
24280;BME280;12395;42.808;23.408;2023-04-15T00:27:03;94142.22;;;7.69;80.86
24280;BME280;12395;42.808;23.408;2023-04-15T00:29:28;94134.28;;;7.76;80.71
24280;BME280;12395;42.808;23.408;2023-04-15T00:31:55;94131.00;;;7.80;78.99
24280;BME280;12395;42.808;23.408;2023-04-15T00:34:21;94122.47;;;7.78;81.27
24280;BME280;12395;42.808;23.408;2023-04-15T00:36:46;94118.06;;;7.72;81.60
24280;BME280;12395;42.808;23.408;2023-04-15T07:54:19;94396.16;;;11.33;71.37
24280;BME280;12395;42.808;23.408;2023-04-15T07:56:44;94385.06;;;11.36;70.74
24280;BME280;12395;42.808;23.408;2023-04-15T07:59:10;94392.84;;;11.37;71.34
24280;BME280;12395;42.808;23.408;2023-04-15T08:01:36;94397.84;;;11.57;70.35
24280;BME280;12395;42.808;23.408;2023-04-15T08:04:02;94401.69;;;11.61;67.44
24280;BME280;12395;42.808;23.408;2023-04-15T08:06:27;94398.50;;;11.71;70.87
24280;BME280;12395;42.808;23.408;2023-04-15T08:08:53;94399.81;;;11.80;69.21
24280;BME280;12395;42.808;23.408;2023-04-15T08:11:19;94408.38;;;11.93;66.99
24280;BME280;12395;42.808;23.408;2023-04-15T08:13:46;94419.25;;;12.03;64.92
24280;BME280;12395;42.808;23.408;2023-04-15T08:16:22;94408.06;;;12.13;68.07
24280;BME280;12395;42.808;23.408;2023-04-15T08:18:49;94415.81;;;12.14;63.60
24280;BME280;12395;42.808;23.408;2023-04-15T08:21:16;94419.88;;;12.28;65.58
24280;BME280;12395;42.808;23.408;2023-04-15T08:23:43;94425.41;;;12.38;62.89
24280;BME280;12395;42.808;23.408;2023-04-15T08:26:09;94403.59;;;12.36;62.11
24280;BME280;12395;42.808;23.408;2023-04-15T08:28:36;94410.75;;;12.48;62.39
24280;BME280;12395;42.808;23.408;2023-04-15T08:31:01;94413.97;;;12.73;62.63
24280;BME280;12395;42.808;23.408;2023-04-15T08:33:27;94421.97;;;12.73;62.05
24280;BME280;12395;42.808;23.408;2023-04-15T08:35:53;94411.00;;;12.69;60.24
24280;BME280;12395;42.808;23.408;2023-04-15T08:38:18;94412.38;;;12.72;57.31
24280;BME280;12395;42.808;23.408;2023-04-15T08:40:44;94410.63;;;12.77;53.45
24280;BME280;12395;42.808;23.408;2023-04-15T08:43:13;94406.00;;;12.84;53.71
24280;BME280;12395;42.808;23.408;2023-04-15T08:45:41;94407.72;;;13.02;53.60
24280;BME280;12395;42.808;23.408;2023-04-15T08:48:08;94403.19;;;13.26;52.05
24280;BME280;12395;42.808;23.408;2023-04-15T08:50:37;94400.47;;;13.37;51.19
24280;BME280;12395;42.808;23.408;2023-04-15T08:53:02;94397.94;;;13.42;52.00
24280;BME280;12395;42.808;23.408;2023-04-15T08:55:29;94396.94;;;13.60;54.98
24280;BME280;12395;42.808;23.408;2023-04-15T08:58:00;94393.53;;;13.64;52.07
24280;BME280;12395;42.808;23.408;2023-04-15T09:00:27;94386.16;;;13.66;49.59
24280;BME280;12395;42.808;23.408;2023-04-15T09:02:54;94368.00;;;13.63;54.18
24280;BME280;12395;42.808;23.408;2023-04-15T09:05:20;94378.50;;;13.86;51.36
24280;BME280;12395;42.808;23.408;2023-04-15T09:07:47;94374.16;;;13.97;51.99
24280;BME280;12395;42.808;23.408;2023-04-15T09:10:13;94388.41;;;14.19;53.63
24280;BME280;12395;42.808;23.408;2023-04-15T09:12:38;94379.69;;;14.24;48.48
24280;BME280;12395;42.808;23.408;2023-04-15T09:15:04;94359.66;;;14.21;51.15
24280;BME280;12395;42.808;23.408;2023-04-15T09:17:32;94375.66;;;14.38;51.43
24280;BME280;12395;42.808;23.408;2023-04-15T09:22:35;94372.72;;;14.73;49.59
24280;BME280;12395;42.808;23.408;2023-04-15T09:25:02;94363.47;;;14.80;48.40
24280;BME280;12395;42.808;23.408;2023-04-15T09:27:28;94352.25;;;14.78;48.65
24280;BME280;12395;42.808;23.408;2023-04-15T09:29:53;94362.13;;;14.99;49.40
24280;BME280;12395;42.808;23.408;2023-04-15T09:32:19;94341.50;;;15.11;48.04
24280;BME280;12395;42.808;23.408;2023-04-15T09:34:47;94354.22;;;15.26;49.15
24280;BME280;12395;42.808;23.408;2023-04-15T09:37:13;94365.31;;;15.39;49.56
24280;BME280;12395;42.808;23.408;2023-04-15T09:39:51;94367.94;;;15.56;48.48
24280;BME280;12395;42.808;23.408;2023-04-15T09:42:17;94367.97;;;15.61;46.86
24280;BME280;12395;42.808;23.408;2023-04-15T09:44:49;94355.59;;;15.77;48.26
24280;BME280;12395;42.808;23.408;2023-04-15T09:47:31;94378.28;;;16.06;45.31
24280;BME280;12395;42.808;23.408;2023-04-15T09:50:00;94365.16;;;15.99;44.54
24280;BME280;12395;42.808;23.408;2023-04-15T09:52:26;94347.34;;;16.10;43.74
24280;BME280;12395;42.808;23.408;2023-04-15T09:54:53;94377.56;;;16.42;45.18
24280;BME280;12395;42.808;23.408;2023-04-15T09:57:21;94375.47;;;16.49;42.70
24280;BME280;12395;42.808;23.408;2023-04-15T09:59:48;94354.97;;;16.60;41.80
24280;BME280;12395;42.808;23.408;2023-04-15T10:02:14;94352.66;;;16.73;44.00
24280;BME280;12395;42.808;23.408;2023-04-15T10:04:40;94372.69;;;16.71;42.05
24280;BME280;12395;42.808;23.408;2023-04-15T10:07:07;94373.03;;;16.79;41.78
24280;BME280;12395;42.808;23.408;2023-04-15T10:09:34;94376.88;;;16.93;41.18
24280;BME280;12395;42.808;23.408;2023-04-15T10:12:02;94365.44;;;17.08;41.68
24280;BME280;12395;42.808;23.408;2023-04-15T10:14:32;94350.91;;;16.94;38.81
24280;BME280;12395;42.808;23.408;2023-04-15T10:17:00;94358.41;;;16.97;39.21
24280;BME280;12395;42.808;23.408;2023-04-15T10:19:26;94363.00;;;17.07;39.12
24280;BME280;12395;42.808;23.408;2023-04-15T10:21:52;94346.81;;;17.33;38.59
24280;BME280;12395;42.808;23.408;2023-04-15T10:24:19;94333.22;;;17.50;40.17
24280;BME280;12395;42.808;23.408;2023-04-15T10:26:45;94340.25;;;17.71;39.01
24280;BME280;12395;42.808;23.408;2023-04-15T10:29:11;94351.25;;;17.80;36.24
24280;BME280;12395;42.808;23.408;2023-04-15T10:31:38;94344.03;;;17.85;38.33
24280;BME280;12395;42.808;23.408;2023-04-15T10:34:05;94332.22;;;17.66;37.21
24280;BME280;12395;42.808;23.408;2023-04-15T10:36:32;94345.50;;;17.46;36.09
24280;BME280;12395;42.808;23.408;2023-04-15T10:38:57;94331.78;;;17.27;35.96
24280;BME280;12395;42.808;23.408;2023-04-15T10:41:27;94325.66;;;17.32;38.71
24280;BME280;12395;42.808;23.408;2023-04-15T10:46:34;94324.09;;;17.46;38.92
24280;BME280;12395;42.808;23.408;2023-04-15T10:51:44;94330.16;;;17.21;35.29
24280;BME280;12395;42.808;23.408;2023-04-15T10:54:14;94324.28;;;17.29;35.49
24280;BME280;12395;42.808;23.408;2023-04-15T10:56:50;94327.25;;;17.33;32.81
24280;BME280;12395;42.808;23.408;2023-04-15T10:59:15;94310.94;;;17.39;33.44
24280;BME280;12395;42.808;23.408;2023-04-15T11:01:52;94308.28;;;17.49;36.28
24280;BME280;12395;42.808;23.408;2023-04-15T11:04:54;94326.59;;;17.78;35.34
24280;BME280;12395;42.808;23.408;2023-04-15T11:07:40;94320.41;;;17.77;34.74
24280;BME280;12395;42.808;23.408;2023-04-15T11:12:56;94330.03;;;17.53;35.66
24280;BME280;12395;42.808;23.408;2023-04-15T11:15:29;94333.75;;;17.52;35.04
24280;BME280;12395;42.808;23.408;2023-04-15T11:18:08;94327.06;;;17.54;34.83
24280;BME280;12395;42.808;23.408;2023-04-15T11:20:34;94322.00;;;17.58;35.44
24280;BME280;12395;42.808;23.408;2023-04-15T11:22:59;94320.41;;;17.67;35.90
24280;BME280;12395;42.808;23.408;2023-04-15T11:25:33;94330.09;;;17.93;35.26
24280;BME280;12395;42.808;23.408;2023-04-15T11:28:00;94308.16;;;17.96;33.69
24280;BME280;12395;42.808;23.408;2023-04-15T11:30:28;94315.09;;;18.12;33.11
24280;BME280;12395;42.808;23.408;2023-04-15T11:32:57;94303.59;;;18.07;33.05
24280;BME280;12395;42.808;23.408;2023-04-15T11:35:23;94295.81;;;18.00;33.35
24280;BME280;12395;42.808;23.408;2023-04-15T11:37:49;94309.19;;;18.20;34.13
24280;BME280;12395;42.808;23.408;2023-04-15T11:40:15;94294.19;;;18.24;33.08
24280;BME280;12395;42.808;23.408;2023-04-15T11:42:44;94299.56;;;18.34;33.17
24280;BME280;12395;42.808;23.408;2023-04-15T11:45:12;94297.94;;;18.48;33.48
24280;BME280;12395;42.808;23.408;2023-04-15T11:47:42;94305.94;;;18.74;35.31
24280;BME280;12395;42.808;23.408;2023-04-15T11:50:17;94288.22;;;18.78;34.90
24280;BME280;12395;42.808;23.408;2023-04-15T11:53:09;94313.75;;;18.65;32.97
24280;BME280;12395;42.808;23.408;2023-04-15T11:55:45;94298.75;;;18.64;34.46
24280;BME280;12395;42.808;23.408;2023-04-15T11:58:15;94302.41;;;18.88;35.07
24280;BME280;12395;42.808;23.408;2023-04-15T12:00:48;94295.69;;;19.01;33.66
24280;BME280;12395;42.808;23.408;2023-04-15T12:11:44;94285.09;;;19.35;32.55
24280;BME280;12395;42.808;23.408;2023-04-15T12:16:43;94286.50;;;19.17;34.28
24280;BME280;12395;42.808;23.408;2023-04-15T12:19:11;94288.06;;;19.23;32.77
24280;BME280;12395;42.808;23.408;2023-04-15T12:21:39;94277.84;;;19.25;31.91
24280;BME280;12395;42.808;23.408;2023-04-15T12:24:08;94284.81;;;19.31;33.32
24280;BME280;12395;42.808;23.408;2023-04-15T12:26:54;94285.94;;;19.20;32.42
24280;BME280;12395;42.808;23.408;2023-04-15T12:29:24;94281.06;;;19.27;33.92
24280;BME280;12395;42.808;23.408;2023-04-15T12:31:55;94288.88;;;19.18;30.52
24280;BME280;12395;42.808;23.408;2023-04-15T12:34:32;94282.28;;;18.91;29.71
24280;BME280;12395;42.808;23.408;2023-04-15T12:36:59;94289.00;;;18.93;29.59
24280;BME280;12395;42.808;23.408;2023-04-15T12:39:26;94288.72;;;18.95;30.83
24280;BME280;12395;42.808;23.408;2023-04-15T12:41:52;94287.41;;;18.87;30.27
24280;BME280;12395;42.808;23.408;2023-04-15T12:44:18;94276.94;;;18.81;30.23
24280;BME280;12395;42.808;23.408;2023-04-15T12:46:44;94273.97;;;18.92;31.82
24280;BME280;12395;42.808;23.408;2023-04-15T12:49:10;94286.25;;;19.13;32.46
24280;BME280;12395;42.808;23.408;2023-04-15T12:51:36;94276.28;;;19.14;32.00
24280;BME280;12395;42.808;23.408;2023-04-15T12:54:01;94285.84;;;19.50;32.43
24280;BME280;12395;42.808;23.408;2023-04-15T12:56:26;94298.31;;;19.70;31.79
24280;BME280;12395;42.808;23.408;2023-04-15T12:58:52;94284.25;;;19.83;31.18
24280;BME280;12395;42.808;23.408;2023-04-15T13:01:17;94286.75;;;19.74;30.46
24280;BME280;12395;42.808;23.408;2023-04-15T13:03:43;94294.84;;;19.69;29.39
24280;BME280;12395;42.808;23.408;2023-04-15T13:06:09;94297.81;;;19.68;30.49
24280;BME280;12395;42.808;23.408;2023-04-15T13:08:34;94292.91;;;19.80;32.50
24280;BME280;12395;42.808;23.408;2023-04-15T13:11:00;94282.69;;;19.82;32.53
24280;BME280;12395;42.808;23.408;2023-04-15T13:13:25;94295.03;;;20.17;33.09
24280;BME280;12395;42.808;23.408;2023-04-15T13:15:51;94295.44;;;20.39;32.64
24280;BME280;12395;42.808;23.408;2023-04-15T13:18:17;94298.59;;;20.46;32.17
24280;BME280;12395;42.808;23.408;2023-04-15T13:20:42;94300.00;;;20.38;28.38
24280;BME280;12395;42.808;23.408;2023-04-15T13:23:08;94293.16;;;20.17;31.16
24280;BME280;12395;42.808;23.408;2023-04-15T13:25:33;94287.84;;;20.12;30.35
24280;BME280;12395;42.808;23.408;2023-04-15T13:27:59;94288.63;;;20.13;31.15
24280;BME280;12395;42.808;23.408;2023-04-15T13:30:26;94249.00;;;19.89;28.80
24280;BME280;12395;42.808;23.408;2023-04-15T13:32:52;94277.44;;;20.00;28.48
24280;BME280;12395;42.808;23.408;2023-04-15T13:35:18;94259.56;;;19.81;29.98
24280;BME280;12395;42.808;23.408;2023-04-15T13:37:43;94278.66;;;19.79;32.15
24280;BME280;12395;42.808;23.408;2023-04-15T13:40:09;94264.69;;;19.77;30.31
24280;BME280;12395;42.808;23.408;2023-04-15T13:42:35;94261.19;;;19.82;32.51
24280;BME280;12395;42.808;23.408;2023-04-15T13:45:01;94282.28;;;19.98;32.75
24280;BME280;12395;42.808;23.408;2023-04-15T13:47:27;94263.63;;;20.12;31.96
24280;BME280;12395;42.808;23.408;2023-04-15T13:49:52;94262.94;;;20.30;31.17
24280;BME280;12395;42.808;23.408;2023-04-15T13:52:20;94276.59;;;20.39;29.92
24280;BME280;12395;42.808;23.408;2023-04-15T13:54:45;94267.16;;;20.41;31.60
24280;BME280;12395;42.808;23.408;2023-04-15T13:57:12;94272.69;;;20.55;31.49
24280;BME280;12395;42.808;23.408;2023-04-15T13:59:37;94282.59;;;20.59;31.61
24280;BME280;12395;42.808;23.408;2023-04-15T14:02:02;94279.97;;;20.54;29.56
24280;BME280;12395;42.808;23.408;2023-04-15T14:04:29;94271.59;;;20.56;29.67
24280;BME280;12395;42.808;23.408;2023-04-15T14:06:55;94277.81;;;20.51;28.79
24280;BME280;12395;42.808;23.408;2023-04-15T14:09:20;94272.03;;;20.39;29.72
24280;BME280;12395;42.808;23.408;2023-04-15T14:11:47;94279.69;;;20.51;30.39
24280;BME280;12395;42.808;23.408;2023-04-15T14:14:13;94281.56;;;20.55;28.68
24280;BME280;12395;42.808;23.408;2023-04-15T14:16:38;94252.09;;;20.40;29.35
24280;BME280;12395;42.808;23.408;2023-04-15T14:19:04;94259.84;;;20.47;30.88
24280;BME280;12395;42.808;23.408;2023-04-15T14:21:29;94270.13;;;20.68;30.57
24280;BME280;12395;42.808;23.408;2023-04-15T14:23:57;94254.59;;;20.60;31.26
24280;BME280;12395;42.808;23.408;2023-04-15T14:26:22;94269.56;;;20.71;29.13
24280;BME280;12395;42.808;23.408;2023-04-15T14:28:47;94272.00;;;20.68;28.58
24280;BME280;12395;42.808;23.408;2023-04-15T14:31:13;94274.91;;;20.48;28.93
24280;BME280;12395;42.808;23.408;2023-04-15T14:33:39;94269.03;;;20.41;29.17
24280;BME280;12395;42.808;23.408;2023-04-15T14:36:05;94273.78;;;20.54;30.28
24280;BME280;12395;42.808;23.408;2023-04-15T14:38:33;94273.56;;;20.74;28.88
24280;BME280;12395;42.808;23.408;2023-04-15T14:41:02;94264.44;;;20.70;28.13
24280;BME280;12395;42.808;23.408;2023-04-15T14:43:28;94263.53;;;20.56;27.74
24280;BME280;12395;42.808;23.408;2023-04-15T14:45:54;94259.91;;;20.42;29.01
24280;BME280;12395;42.808;23.408;2023-04-15T14:48:19;94270.38;;;20.43;27.29
24280;BME280;12395;42.808;23.408;2023-04-15T14:50:45;94281.34;;;20.47;28.81
24280;BME280;12395;42.808;23.408;2023-04-15T14:53:10;94263.09;;;20.44;28.00
24280;BME280;12395;42.808;23.408;2023-04-15T14:55:36;94265.69;;;20.25;28.75
24280;BME280;12395;42.808;23.408;2023-04-15T14:58:01;94272.88;;;20.35;29.20
24280;BME280;12395;42.808;23.408;2023-04-15T15:00:26;94242.34;;;20.16;27.93
24280;BME280;12395;42.808;23.408;2023-04-15T15:02:52;94262.84;;;20.07;28.28
24280;BME280;12395;42.808;23.408;2023-04-15T15:05:17;94262.94;;;19.96;28.53
24280;BME280;12395;42.808;23.408;2023-04-15T15:07:43;94263.59;;;19.78;27.71
24280;BME280;12395;42.808;23.408;2023-04-15T15:10:08;94244.88;;;19.68;28.55
24280;BME280;12395;42.808;23.408;2023-04-15T15:12:34;94243.47;;;19.76;28.60
24280;BME280;12395;42.808;23.408;2023-04-15T15:15:02;94251.28;;;19.72;28.63
24280;BME280;12395;42.808;23.408;2023-04-15T15:17:27;94236.69;;;19.40;27.51
24280;BME280;12395;42.808;23.408;2023-04-15T15:19:53;94215.59;;;19.18;29.07
24280;BME280;12395;42.808;23.408;2023-04-15T15:22:18;94239.72;;;19.23;30.86
24280;BME280;12395;42.808;23.408;2023-04-15T15:24:43;94235.63;;;19.41;32.67
24280;BME280;12395;42.808;23.408;2023-04-15T15:27:09;94229.84;;;19.62;31.61
24280;BME280;12395;42.808;23.408;2023-04-15T15:29:34;94242.06;;;19.83;30.02
24280;BME280;12395;42.808;23.408;2023-04-15T15:31:59;94248.13;;;19.99;30.48
24280;BME280;12395;42.808;23.408;2023-04-15T15:34:25;94248.50;;;20.21;30.92
24280;BME280;12395;42.808;23.408;2023-04-15T15:36:51;94244.69;;;20.27;30.01
24280;BME280;12395;42.808;23.408;2023-04-15T15:39:16;94233.97;;;20.22;30.03
24280;BME280;12395;42.808;23.408;2023-04-15T15:41:41;94221.50;;;19.97;30.15
24280;BME280;12395;42.808;23.408;2023-04-15T15:44:07;94245.81;;;19.82;28.58
24280;BME280;12395;42.808;23.408;2023-04-15T15:46:32;94238.00;;;19.52;29.36
24280;BME280;12395;42.808;23.408;2023-04-15T15:48:58;94234.31;;;19.38;29.51
24280;BME280;12395;42.808;23.408;2023-04-15T15:51:23;94235.69;;;19.25;28.28
24280;BME280;12395;42.808;23.408;2023-04-15T15:53:49;94237.59;;;19.20;28.93
24280;BME280;12395;42.808;23.408;2023-04-15T15:56:14;94218.38;;;19.03;28.58
24280;BME280;12395;42.808;23.408;2023-04-15T15:58:40;94232.31;;;19.05;28.45
24280;BME280;12395;42.808;23.408;2023-04-15T16:01:07;94219.50;;;18.87;28.42
24280;BME280;12395;42.808;23.408;2023-04-15T16:03:33;94236.69;;;18.81;28.63
24280;BME280;12395;42.808;23.408;2023-04-15T16:05:58;94229.22;;;18.73;29.96
24280;BME280;12395;42.808;23.408;2023-04-15T16:08:24;94233.50;;;18.74;30.94
24280;BME280;12395;42.808;23.408;2023-04-15T16:10:50;94224.94;;;18.67;32.00
24280;BME280;12395;42.808;23.408;2023-04-15T16:13:15;94227.63;;;18.67;31.94
24280;BME280;12395;42.808;23.408;2023-04-15T16:15:41;94234.63;;;18.58;32.43
24280;BME280;12395;42.808;23.408;2023-04-15T16:18:06;94237.84;;;18.55;33.02
24280;BME280;12395;42.808;23.408;2023-04-15T16:20:32;94222.03;;;18.58;32.52
24280;BME280;12395;42.808;23.408;2023-04-15T16:22:58;94220.41;;;18.62;32.84
24280;BME280;12395;42.808;23.408;2023-04-15T16:25:24;94230.31;;;18.67;33.04
24280;BME280;12395;42.808;23.408;2023-04-15T16:27:49;94229.78;;;18.55;33.20
24280;BME280;12395;42.808;23.408;2023-04-15T16:30:15;94190.13;;;18.31;33.66
24280;BME280;12395;42.808;23.408;2023-04-15T16:32:40;94236.50;;;18.52;34.05
24280;BME280;12395;42.808;23.408;2023-04-15T16:35:06;94223.38;;;18.40;34.74
24280;BME280;12395;42.808;23.408;2023-04-15T16:37:32;94231.41;;;18.35;35.21
24280;BME280;12395;42.808;23.408;2023-04-15T16:39:58;94237.06;;;18.34;35.84
24280;BME280;12395;42.808;23.408;2023-04-15T16:42:24;94234.13;;;18.25;36.51
24280;BME280;12395;42.808;23.408;2023-04-15T16:44:50;94234.94;;;18.06;36.86
24280;BME280;12395;42.808;23.408;2023-04-15T16:47:15;94234.16;;;17.85;37.13
24280;BME280;12395;42.808;23.408;2023-04-15T16:49:41;94229.63;;;17.70;38.00
24280;BME280;12395;42.808;23.408;2023-04-15T16:52:06;94236.25;;;17.48;38.36
24280;BME280;12395;42.808;23.408;2023-04-15T16:54:31;94234.59;;;17.27;38.77
24280;BME280;12395;42.808;23.408;2023-04-15T16:56:59;94230.53;;;17.04;38.97
24280;BME280;12395;42.808;23.408;2023-04-15T16:59:26;94241.97;;;16.84;39.86
24280;BME280;12395;42.808;23.408;2023-04-15T17:01:52;94228.38;;;16.44;39.61
24280;BME280;12395;42.808;23.408;2023-04-15T17:04:18;94247.53;;;16.31;40.45
24280;BME280;12395;42.808;23.408;2023-04-15T17:06:43;94249.75;;;16.02;42.10
24280;BME280;12395;42.808;23.408;2023-04-15T17:09:09;94242.72;;;15.60;42.54
24280;BME280;12395;42.808;23.408;2023-04-15T17:11:34;94240.13;;;15.16;43.05
24280;BME280;12395;42.808;23.408;2023-04-15T17:14:01;94229.34;;;14.80;42.88
24280;BME280;12395;42.808;23.408;2023-04-15T17:16:26;94255.31;;;14.67;43.06
24280;BME280;12395;42.808;23.408;2023-04-15T17:18:52;94251.53;;;14.42;44.23
24280;BME280;12395;42.808;23.408;2023-04-15T17:21:17;94255.03;;;14.26;45.35
24280;BME280;12395;42.808;23.408;2023-04-15T17:23:43;94253.56;;;14.18;47.50
24280;BME280;12395;42.808;23.408;2023-04-15T17:26:08;94258.69;;;13.86;46.00
24280;BME280;12395;42.808;23.408;2023-04-15T17:28:33;94267.16;;;13.67;46.42
24280;BME280;12395;42.808;23.408;2023-04-15T17:30:59;94266.69;;;13.53;47.50
24280;BME280;12395;42.808;23.408;2023-04-15T17:33:25;94265.34;;;13.39;48.02
24280;BME280;12395;42.808;23.408;2023-04-15T17:35:51;94264.91;;;13.14;48.93
24280;BME280;12395;42.808;23.408;2023-04-15T17:38:16;94280.53;;;13.10;49.01
24280;BME280;12395;42.808;23.408;2023-04-15T17:40:41;94271.00;;;12.86;49.55
24280;BME280;12395;42.808;23.408;2023-04-15T17:43:07;94293.34;;;12.74;49.13
24280;BME280;12395;42.808;23.408;2023-04-15T17:45:33;94300.06;;;12.65;49.93
24280;BME280;12395;42.808;23.408;2023-04-15T17:47:58;94298.47;;;12.40;51.16
24280;BME280;12395;42.808;23.408;2023-04-15T17:50:26;94302.22;;;12.16;51.86
24280;BME280;12395;42.808;23.408;2023-04-15T17:52:52;94301.97;;;11.95;52.80
24280;BME280;12395;42.808;23.408;2023-04-15T17:55:17;94301.63;;;11.80;52.69
24280;BME280;12395;42.808;23.408;2023-04-15T17:57:45;94311.84;;;11.76;52.67
24280;BME280;12395;42.808;23.408;2023-04-15T18:00:11;94317.50;;;11.68;53.00
24280;BME280;12395;42.808;23.408;2023-04-15T18:02:37;94306.19;;;11.61;52.92
24280;BME280;12395;42.808;23.408;2023-04-15T18:05:02;94306.03;;;11.56;52.99
24280;BME280;12395;42.808;23.408;2023-04-15T18:07:28;94319.75;;;11.53;53.67
24280;BME280;12395;42.808;23.408;2023-04-15T18:09:53;94313.28;;;11.49;52.95
24280;BME280;12395;42.808;23.408;2023-04-15T18:12:20;94323.78;;;11.44;53.20
24280;BME280;12395;42.808;23.408;2023-04-15T18:14:45;94321.91;;;11.33;53.75
24280;BME280;12395;42.808;23.408;2023-04-15T18:17:11;94308.81;;;11.20;53.91
24280;BME280;12395;42.808;23.408;2023-04-15T18:19:39;94316.44;;;11.28;53.85
24280;BME280;12395;42.808;23.408;2023-04-15T18:22:04;94306.97;;;11.20;53.61
24280;BME280;12395;42.808;23.408;2023-04-15T18:24:30;94308.56;;;11.10;54.26
24280;BME280;12395;42.808;23.408;2023-04-15T18:26:55;94325.66;;;10.96;54.66
24280;BME280;12395;42.808;23.408;2023-04-15T18:29:21;94330.09;;;10.83;55.01
24280;BME280;12395;42.808;23.408;2023-04-15T18:31:46;94332.16;;;10.81;54.99
24280;BME280;12395;42.808;23.408;2023-04-15T18:34:12;94337.66;;;10.80;55.50
24280;BME280;12395;42.808;23.408;2023-04-15T18:36:37;94326.63;;;10.65;55.48
24280;BME280;12395;42.808;23.408;2023-04-15T18:39:03;94333.06;;;10.57;56.37
24280;BME280;12395;42.808;23.408;2023-04-15T18:41:29;94327.66;;;10.46;56.02
24280;BME280;12395;42.808;23.408;2023-04-15T18:43:54;94328.47;;;10.46;56.35
24280;BME280;12395;42.808;23.408;2023-04-15T18:46:20;94327.31;;;10.42;55.87
24280;BME280;12395;42.808;23.408;2023-04-15T18:48:46;94326.88;;;10.45;55.82
24280;BME280;12395;42.808;23.408;2023-04-15T18:51:11;94316.72;;;10.42;55.71
24280;BME280;12395;42.808;23.408;2023-04-15T18:53:36;94321.34;;;10.47;56.17
24280;BME280;12395;42.808;23.408;2023-04-15T18:56:02;94329.94;;;10.42;56.07
24280;BME280;12395;42.808;23.408;2023-04-15T18:58:28;94334.66;;;10.40;56.13
24280;BME280;12395;42.808;23.408;2023-04-15T19:00:53;94334.22;;;10.43;55.92
24280;BME280;12395;42.808;23.408;2023-04-15T19:03:19;94338.78;;;10.36;56.47
24280;BME280;12395;42.808;23.408;2023-04-15T19:05:44;94335.78;;;10.33;56.75
24280;BME280;12395;42.808;23.408;2023-04-15T19:08:10;94336.84;;;10.25;57.29
24280;BME280;12395;42.808;23.408;2023-04-15T19:10:36;94314.19;;;10.11;56.98
24280;BME280;12395;42.808;23.408;2023-04-15T19:13:01;94332.81;;;10.23;57.01
24280;BME280;12395;42.808;23.408;2023-04-15T19:15:28;94338.84;;;10.30;56.93
24280;BME280;12395;42.808;23.408;2023-04-15T19:17:53;94342.66;;;10.34;57.42
24280;BME280;12395;42.808;23.408;2023-04-15T19:20:18;94333.13;;;10.33;57.23
24280;BME280;12395;42.808;23.408;2023-04-15T19:22:44;94333.13;;;10.33;56.82
24280;BME280;12395;42.808;23.408;2023-04-15T19:25:10;94343.50;;;10.34;57.27
24280;BME280;12395;42.808;23.408;2023-04-15T19:27:35;94343.91;;;10.31;57.11
24280;BME280;12395;42.808;23.408;2023-04-15T19:30:03;94343.63;;;10.39;57.35
24280;BME280;12395;42.808;23.408;2023-04-15T19:32:28;94339.06;;;10.28;57.48
24280;BME280;12395;42.808;23.408;2023-04-15T19:34:54;94341.91;;;10.27;58.14
24280;BME280;12395;42.808;23.408;2023-04-15T19:37:19;94341.84;;;10.33;58.10
24280;BME280;12395;42.808;23.408;2023-04-15T19:39:45;94324.78;;;10.29;57.42
24280;BME280;12395;42.808;23.408;2023-04-15T19:42:10;94331.50;;;10.32;57.86
24280;BME280;12395;42.808;23.408;2023-04-15T19:44:36;94338.56;;;10.38;58.53
24280;BME280;12395;42.808;23.408;2023-04-15T19:47:01;94328.03;;;10.31;61.22
24280;BME280;12395;42.808;23.408;2023-04-15T19:49:27;94346.19;;;10.46;61.69
24280;BME280;12395;42.808;23.408;2023-04-15T19:51:52;94329.13;;;10.42;60.99
24280;BME280;12395;42.808;23.408;2023-04-15T19:54:17;94344.06;;;10.54;59.27
24280;BME280;12395;42.808;23.408;2023-04-15T19:56:43;94331.66;;;10.55;58.25
24280;BME280;12395;42.808;23.408;2023-04-15T19:59:08;94340.94;;;10.64;58.00
24280;BME280;12395;42.808;23.408;2023-04-15T20:01:34;94331.34;;;10.63;57.85
24280;BME280;12395;42.808;23.408;2023-04-15T20:03:59;94334.06;;;10.56;58.91
24280;BME280;12395;42.808;23.408;2023-04-15T20:06:27;94341.06;;;10.51;59.57
24280;BME280;12395;42.808;23.408;2023-04-15T20:08:52;94343.78;;;10.44;58.75
24280;BME280;12395;42.808;23.408;2023-04-15T20:11:18;94342.19;;;10.43;59.16
24280;BME280;12395;42.808;23.408;2023-04-15T20:13:43;94342.84;;;10.39;59.39
24280;BME280;12395;42.808;23.408;2023-04-15T20:16:08;94348.34;;;10.55;60.07
24280;BME280;12395;42.808;23.408;2023-04-15T20:18:35;94336.81;;;10.50;61.06
24280;BME280;12395;42.808;23.408;2023-04-15T20:21:01;94339.66;;;10.48;60.43
24280;BME280;12395;42.808;23.408;2023-04-15T20:23:26;94338.84;;;10.48;60.25